createdAt,value
2022-09-16T00:02:19.706Z,1.65
2022-09-16T00:04:48.765Z,1.40
2022-09-16T00:07:17.791Z,1.42
2022-09-16T00:09:48.205Z,1.00
2022-09-16T00:12:17.213Z,1.60
2022-09-16T00:14:46.129Z,1.10
2022-09-16T00:17:15.513Z,1.25
2022-09-16T00:19:46.298Z,0.70
2022-09-16T00:22:15.638Z,0.80
2022-09-16T00:24:45.219Z,0.60
2022-09-16T00:27:15.493Z,0.73
2022-09-16T00:29:44.497Z,0.80
2022-09-16T00:32:13.691Z,1.00
2022-09-16T00:34:42.655Z,0.93
2022-09-16T00:37:12.165Z,0.82
2022-09-16T00:39:41.389Z,0.60
2022-09-16T00:42:12.097Z,0.80
2022-09-16T00:44:56.408Z,0.73
2022-09-16T00:47:27.116Z,0.93
2022-09-16T00:49:59.371Z,0.60
2022-09-16T00:52:32.798Z,0.70
2022-09-16T00:55:03.635Z,1.10
2022-09-16T00:57:32.832Z,0.80
2022-09-16T01:00:03.673Z,0.57
2022-09-16T01:02:32.745Z,0.75
2022-09-16T01:05:03.277Z,0.70
2022-09-16T01:07:34.916Z,0.77
2022-09-16T01:10:04.137Z,1.17
2022-09-16T01:12:33.728Z,0.88
2022-09-16T01:15:04.660Z,0.88
2022-09-16T01:17:42.788Z,0.95
2022-09-16T01:20:26.663Z,0.90
2022-09-16T01:23:04.250Z,0.70
2022-09-16T01:25:41.206Z,1.55
2022-09-16T01:28:31.475Z,0.60
2022-09-16T01:31:06.665Z,0.70
2022-09-16T01:33:38.729Z,0.60
2022-09-16T01:36:16.067Z,0.80
2022-09-16T01:38:56.314Z,0.60
2022-09-16T01:41:28.323Z,0.93
2022-09-16T01:44:01.076Z,0.60
2022-09-16T01:46:34.429Z,0.63
2022-09-16T01:49:09.515Z,0.73
2022-09-16T01:51:43.772Z,0.70
2022-09-16T01:54:15.935Z,0.82
2022-09-16T01:59:16.627Z,0.73
2022-09-16T02:04:18.177Z,0.60
2022-09-16T02:06:47.991Z,0.60
2022-09-16T02:09:19.508Z,1.05
2022-09-16T02:11:50.078Z,0.55
2022-09-16T02:14:21.276Z,0.55
2022-09-16T02:16:53.878Z,0.75
2022-09-16T02:19:26.552Z,0.82
2022-09-16T02:21:57.090Z,0.95
2022-09-16T02:24:26.875Z,0.65
2022-09-16T02:26:57.468Z,0.52
2022-09-16T02:29:28.692Z,0.50
2022-09-16T02:32:02.910Z,0.77
2022-09-16T02:34:38.308Z,0.73
2022-09-16T02:37:09.027Z,1.25
2022-09-16T02:39:43.172Z,0.40
2022-09-16T02:42:12.261Z,1.20
2022-09-16T02:44:41.608Z,0.90
2022-09-16T02:47:13.716Z,0.50
2022-09-16T02:49:49.520Z,0.55
2022-09-16T02:52:22.041Z,0.60
2022-09-16T02:54:53.631Z,0.80
2022-09-16T02:57:22.724Z,0.70
2022-09-16T02:59:51.852Z,0.60
2022-09-16T03:02:20.772Z,0.60
2022-09-16T03:04:51.269Z,0.60
2022-09-16T03:07:20.499Z,0.90
2022-09-16T03:09:50.066Z,0.90
2022-09-16T03:12:26.462Z,0.52
2022-09-16T03:15:09.952Z,0.88
2022-09-16T03:17:46.782Z,0.60
2022-09-16T03:20:22.004Z,0.40
2022-09-16T03:22:58.563Z,0.90
2022-09-16T03:25:34.659Z,1.05
2022-09-16T03:28:06.698Z,0.90
2022-09-16T03:33:07.767Z,0.47
2022-09-16T03:35:47.632Z,0.93
2022-09-16T03:38:19.091Z,0.63
2022-09-16T03:40:49.576Z,0.63
2022-09-16T03:43:19.285Z,0.80
2022-09-16T03:45:48.172Z,0.80
2022-09-16T03:48:17.148Z,0.82
2022-09-16T03:50:47.608Z,0.73
2022-09-16T03:53:16.927Z,0.70
2022-09-16T03:55:46.663Z,0.70
2022-09-16T03:58:15.706Z,1.20
2022-09-16T04:00:44.846Z,0.50
2022-09-16T04:03:14.156Z,0.88
2022-09-16T04:05:43.408Z,0.70
2022-09-16T04:08:14.018Z,0.63
2022-09-16T04:10:43.163Z,0.73
2022-09-16T04:13:12.527Z,0.95
2022-09-16T04:15:41.595Z,0.52
2022-09-16T04:18:10.717Z,0.73
2022-09-16T04:20:40.165Z,0.77
2022-09-16T04:23:09.213Z,0.77
2022-09-16T04:25:43.898Z,0.88
2022-09-16T04:28:13.086Z,0.68
2022-09-16T04:30:42.195Z,1.10
2022-09-16T04:33:11.345Z,0.80
2022-09-16T04:35:40.728Z,0.60
2022-09-16T04:38:09.630Z,0.70
2022-09-16T04:40:40.112Z,0.88
2022-09-16T04:43:09.756Z,1.60
2022-09-16T04:45:38.710Z,0.70
2022-09-16T04:48:08.036Z,0.80
2022-09-16T04:50:36.966Z,1.08
2022-09-16T04:53:06.184Z,1.15
2022-09-16T04:55:35.219Z,0.98
2022-09-16T04:58:05.842Z,0.88
2022-09-16T05:00:35.051Z,0.80
2022-09-16T05:03:04.407Z,0.80
2022-09-16T05:05:33.520Z,1.42
2022-09-16T05:08:02.639Z,1.10
2022-09-16T05:10:31.734Z,0.80
2022-09-16T05:13:00.713Z,0.80
2022-09-16T05:15:31.325Z,0.80
2022-09-16T05:18:02.822Z,1.00
2022-09-16T05:20:31.798Z,0.90
2022-09-16T05:23:00.767Z,1.10
2022-09-16T05:25:29.781Z,0.90
2022-09-16T05:28:01.560Z,1.10
2022-09-16T05:30:32.343Z,0.80
2022-09-16T05:33:01.626Z,0.85
2022-09-16T05:35:30.746Z,0.75
2022-09-16T05:37:59.796Z,0.65
2022-09-16T05:40:30.435Z,0.80
2022-09-16T05:42:59.421Z,1.00
2022-09-16T05:45:32.207Z,1.00
2022-09-16T05:48:02.938Z,0.88
2022-09-16T05:50:33.086Z,0.80
2022-09-16T05:53:02.091Z,0.90
2022-09-16T05:55:31.133Z,1.10
2022-09-16T05:58:00.494Z,1.15
2022-09-16T06:00:29.920Z,0.93
2022-09-16T06:02:59.093Z,1.42
2022-09-16T06:05:30.068Z,1.00
2022-09-16T06:08:02.305Z,1.30
2022-09-16T06:10:31.236Z,1.13
2022-09-16T06:13:00.265Z,1.08
2022-09-16T06:15:29.240Z,1.83
2022-09-16T06:18:00.837Z,1.15
2022-09-16T06:20:34.718Z,1.02
2022-09-16T06:23:04.499Z,1.27
2022-09-16T06:25:34.316Z,1.05
2022-09-16T06:28:03.630Z,0.60
2022-09-16T06:30:32.731Z,1.80
2022-09-16T06:33:01.944Z,1.05
2022-09-16T06:35:31.153Z,1.30
2022-09-16T06:38:02.007Z,0.77
2022-09-16T06:40:30.973Z,0.82
2022-09-16T06:43:00.392Z,1.25
2022-09-16T06:45:29.931Z,1.02
2022-09-16T06:48:01.664Z,1.25
2022-09-16T06:50:30.750Z,1.10
2022-09-16T06:52:59.884Z,0.82
2022-09-16T06:55:30.365Z,1.17
2022-09-16T06:57:59.317Z,0.90
2022-09-16T07:00:28.315Z,1.00
2022-09-16T07:02:57.563Z,0.93
2022-09-16T07:05:29.196Z,1.00
2022-09-16T07:08:01.018Z,1.20
2022-09-16T07:10:31.494Z,1.30
2022-09-16T07:13:00.431Z,0.75
2022-09-16T07:15:32.302Z,0.93
2022-09-16T07:18:02.145Z,1.38
2022-09-16T07:20:31.530Z,1.70
2022-09-16T07:23:00.961Z,1.10
2022-09-16T07:25:35.584Z,1.40
2022-09-16T07:28:05.492Z,1.45
2022-09-16T07:30:35.233Z,1.38
2022-09-16T07:33:05.663Z,1.13
2022-09-16T07:35:35.201Z,1.48
2022-09-16T07:38:04.367Z,1.52
2022-09-16T07:40:35.787Z,1.30
2022-09-16T07:43:05.186Z,1.45
2022-09-16T07:45:37.060Z,1.10
2022-09-16T07:48:09.268Z,1.55
2022-09-16T07:53:07.399Z,1.58
2022-09-16T07:55:38.305Z,0.88
2022-09-16T07:58:07.492Z,0.98
2022-09-16T08:00:36.711Z,1.75
2022-09-16T08:03:06.325Z,0.95
2022-09-16T08:05:35.431Z,0.80
2022-09-16T08:08:05.043Z,0.68
2022-09-16T08:10:34.318Z,0.70
2022-09-16T08:13:04.877Z,0.57
2022-09-16T08:15:35.993Z,0.68
2022-09-16T08:18:05.323Z,0.83
2022-09-16T08:20:36.917Z,0.75
2022-09-16T08:23:08.940Z,0.80
2022-09-16T08:25:38.061Z,0.90
2022-09-16T08:28:15.088Z,0.85
2022-09-16T08:30:51.286Z,0.77
2022-09-16T08:33:25.869Z,1.00
2022-09-16T08:36:01.625Z,0.70
2022-09-16T08:38:31.529Z,0.63
2022-09-16T08:41:03.739Z,0.40
2022-09-16T08:46:10.426Z,0.55
2022-09-16T08:48:44.811Z,0.80
2022-09-16T08:51:24.606Z,0.65
2022-09-16T08:53:56.600Z,0.75
2022-09-16T08:56:29.424Z,0.50
2022-09-16T08:59:00.297Z,0.85
2022-09-16T09:01:34.860Z,0.60
2022-09-16T09:04:04.171Z,0.40
2022-09-16T09:06:40.134Z,0.60
2022-09-16T09:09:17.611Z,0.60
2022-09-16T09:11:52.800Z,0.75
2022-09-16T09:14:30.002Z,0.50
2022-09-16T09:17:12.187Z,0.70
2022-09-16T09:19:52.899Z,0.80
2022-09-16T09:22:33.641Z,0.77
2022-09-16T09:25:14.900Z,0.70
2022-09-16T09:27:48.782Z,0.60
2022-09-16T09:30:20.520Z,0.95
2022-09-16T09:32:58.039Z,0.50
2022-09-16T09:35:34.636Z,0.75
2022-09-16T09:38:24.707Z,0.82
2022-09-16T09:40:58.793Z,0.60
2022-09-16T09:43:32.859Z,0.65
2022-09-16T09:46:06.545Z,0.65
2022-09-16T09:48:42.511Z,0.63
2022-09-16T09:51:19.647Z,0.63
2022-09-16T09:53:53.218Z,0.60
2022-09-16T09:56:23.943Z,0.77
2022-09-16T09:59:00.171Z,0.40
2022-09-16T10:01:29.654Z,0.60
2022-09-16T10:04:00.492Z,0.50
2022-09-16T10:06:34.165Z,0.73
2022-09-16T10:09:03.763Z,0.60
2022-09-16T10:11:33.657Z,0.70
2022-09-16T10:14:05.909Z,0.80
2022-09-16T10:16:37.565Z,0.57
2022-09-16T10:19:11.126Z,0.70
2022-09-16T10:21:47.209Z,0.60
2022-09-16T10:24:34.506Z,0.75
2022-09-16T10:27:06.357Z,0.65
2022-09-16T10:29:35.729Z,0.55
2022-09-16T10:32:09.204Z,0.50
2022-09-16T10:34:43.208Z,0.60
2022-09-16T10:37:27.080Z,0.60
2022-09-16T10:39:58.756Z,0.43
2022-09-16T10:42:32.667Z,0.82
2022-09-16T10:45:05.459Z,0.40
2022-09-16T10:47:38.397Z,0.20
2022-09-16T10:50:09.938Z,0.40
2022-09-16T10:52:43.549Z,0.32
2022-09-16T10:55:22.289Z,0.38
2022-09-16T10:57:51.515Z,0.35
2022-09-16T11:00:21.684Z,0.20
2022-09-16T11:03:00.013Z,0.40
2022-09-16T11:05:34.144Z,0.52
2022-09-16T11:08:08.514Z,0.30
2022-09-16T11:10:42.948Z,0.20
2022-09-16T11:13:26.854Z,1.05
2022-09-16T11:16:06.828Z,0.20
2022-09-16T11:18:50.705Z,0.20
2022-09-16T11:21:30.796Z,0.30
2022-09-16T11:24:10.655Z,0.30
2022-09-16T11:26:46.628Z,0.30
2022-09-16T11:29:27.518Z,0.20
2022-09-16T11:32:02.864Z,0.10
2022-09-16T11:34:43.232Z,0.20
2022-09-16T11:37:18.357Z,0.10
2022-09-16T11:40:01.571Z,0.13
2022-09-16T11:42:33.469Z,0.10
2022-09-16T11:45:06.397Z,0.17
2022-09-16T11:47:40.834Z,0.10
2022-09-16T11:50:22.535Z,0.20
2022-09-16T11:53:04.318Z,0.20
2022-09-16T11:55:40.546Z,0.20
2022-09-16T11:58:23.617Z,0.30
2022-09-16T12:00:56.385Z,0.30
2022-09-16T12:03:32.434Z,0.85
2022-09-16T12:06:05.724Z,0.17
2022-09-16T12:08:47.205Z,0.20
2022-09-16T12:11:22.401Z,0.20
2022-09-16T12:14:05.421Z,0.17
2022-09-16T12:16:38.036Z,0.20
2022-09-16T12:21:37.918Z,0.20
2022-09-16T12:24:12.684Z,0.20
2022-09-16T12:26:43.837Z,0.20
2022-09-16T12:29:16.150Z,0.15
2022-09-16T12:31:46.642Z,0.20
2022-09-16T12:34:20.488Z,0.20
2022-09-16T12:36:53.158Z,0.30
2022-09-16T12:39:23.963Z,0.40
2022-09-16T12:42:12.521Z,0.20
2022-09-16T12:44:54.840Z,0.43
2022-09-16T12:47:35.436Z,0.20
2022-09-16T12:50:16.227Z,0.20
2022-09-16T12:53:00.387Z,0.20
2022-09-16T12:55:38.750Z,0.15
2022-09-16T12:58:20.304Z,0.10
2022-09-16T13:00:54.360Z,0.20
2022-09-16T13:03:26.441Z,0.15
2022-09-16T13:08:28.472Z,0.10
2022-09-16T13:11:29.236Z,0.10
2022-09-16T13:13:50.520Z,0.15
2022-09-16T13:16:29.670Z,0.25
2022-09-16T13:19:11.930Z,0.20
2022-09-16T13:21:44.592Z,0.10
2022-09-16T13:24:15.304Z,0.20
2022-09-16T13:26:48.909Z,0.50
2022-09-16T13:29:44.090Z,0.10
2022-09-16T13:32:29.277Z,0.10
2022-09-16T13:35:05.847Z,0.10
2022-09-16T13:37:34.828Z,0.45
2022-09-16T13:40:11.141Z,0.10
2022-09-16T13:42:41.695Z,0.10
2022-09-16T13:45:25.622Z,0.10
2022-09-16T13:47:56.042Z,0.20
2022-09-16T13:50:27.212Z,0.10
2022-09-16T13:52:59.113Z,0.10
2022-09-16T13:55:30.070Z,0.20
2022-09-16T13:58:03.094Z,0.15
2022-09-16T14:00:37.692Z,0.10
2022-09-16T14:03:31.512Z,0.10
2022-09-16T14:06:18.823Z,0.20
2022-09-16T14:08:54.735Z,0.10
2022-09-16T14:11:29.888Z,0.10
2022-09-16T14:14:06.826Z,0.10
2022-09-16T14:16:40.480Z,0.10
2022-09-16T14:19:10.542Z,0.20
2022-09-16T14:21:42.765Z,0.15
2022-09-16T14:24:17.903Z,0.13
2022-09-16T14:26:54.003Z,0.10
2022-09-16T14:29:25.163Z,0.10
2022-09-16T14:31:57.776Z,0.20
2022-09-16T14:34:29.179Z,0.20
2022-09-16T14:36:58.597Z,0.10
2022-09-16T14:39:28.842Z,0.20
2022-09-16T14:41:59.228Z,0.10
2022-09-16T14:44:34.125Z,0.20
2022-09-16T14:47:09.263Z,0.30
2022-09-16T14:49:43.739Z,0.10
2022-09-16T14:52:20.214Z,0.22
2022-09-16T14:54:50.720Z,0.20
2022-09-16T14:57:24.802Z,0.20
2022-09-16T14:59:56.868Z,0.20
2022-09-16T15:02:27.431Z,0.30
2022-09-16T15:04:58.489Z,0.20
2022-09-16T15:07:29.513Z,0.10
2022-09-16T15:10:01.067Z,0.22
2022-09-16T15:12:32.970Z,0.22
2022-09-16T15:15:06.478Z,0.20
2022-09-16T15:17:36.129Z,0.10
2022-09-16T15:20:05.438Z,0.28
2022-09-16T15:22:43.697Z,0.10
2022-09-16T15:25:22.514Z,0.10
2022-09-16T15:27:52.031Z,0.20
2022-09-16T15:30:24.829Z,0.20
2022-09-16T15:32:53.784Z,0.20
2022-09-16T15:35:24.592Z,0.38
2022-09-16T15:37:54.545Z,0.20
2022-09-16T15:40:25.010Z,0.20
2022-09-16T15:43:03.618Z,0.10
2022-09-16T15:45:34.179Z,0.20
2022-09-16T15:48:05.551Z,0.20
2022-09-16T15:50:40.682Z,0.30
2022-09-16T15:53:14.323Z,0.20
2022-09-16T15:55:44.925Z,0.10
2022-09-16T15:58:16.812Z,0.40
2022-09-16T16:00:59.412Z,0.30
2022-09-16T16:03:29.561Z,0.50
2022-09-16T16:05:58.928Z,0.43
2022-09-16T16:08:42.236Z,0.47
2022-09-16T16:11:12.359Z,0.20
2022-09-16T16:13:41.990Z,0.25
2022-09-16T16:16:14.650Z,0.38
2022-09-16T16:18:44.293Z,0.10
2022-09-16T16:21:14.236Z,0.20
2022-09-16T16:23:43.741Z,0.28
2022-09-16T16:26:13.037Z,0.20
2022-09-16T16:28:42.178Z,0.20
2022-09-16T16:31:14.096Z,0.40
2022-09-16T16:33:44.965Z,0.17
2022-09-16T16:36:15.133Z,0.10
2022-09-16T16:38:45.580Z,0.20
2022-09-16T16:41:14.806Z,0.20
2022-09-16T16:43:43.881Z,0.10
2022-09-16T16:46:14.706Z,0.30
2022-09-16T16:48:43.821Z,0.20
2022-09-16T16:51:14.242Z,0.15
2022-09-16T16:53:43.253Z,0.17
2022-09-16T16:56:15.391Z,0.30
2022-09-16T17:01:16.384Z,0.28
2022-09-16T17:06:15.755Z,0.30
2022-09-16T17:08:45.365Z,0.30
2022-09-16T17:11:15.997Z,0.20
2022-09-16T17:13:46.236Z,0.20
2022-09-16T17:16:18.103Z,0.13
2022-09-16T17:18:47.544Z,0.13
2022-09-16T17:21:17.579Z,0.20
2022-09-16T17:23:46.773Z,0.20
2022-09-16T17:26:16.578Z,0.20
2022-09-16T17:28:46.599Z,0.15
2022-09-16T17:31:18.141Z,0.20
2022-09-16T17:33:47.756Z,0.55
2022-09-16T17:36:18.388Z,0.20
2022-09-16T17:38:47.361Z,0.20
2022-09-16T17:41:17.533Z,0.30
2022-09-16T17:43:46.724Z,0.30
2022-09-16T17:46:19.573Z,0.30
2022-09-16T17:48:49.040Z,0.30
2022-09-16T17:51:18.542Z,0.52
2022-09-16T17:53:52.583Z,0.50
2022-09-16T17:56:21.546Z,0.45
2022-09-16T17:58:50.991Z,0.30
2022-09-16T18:01:22.926Z,0.43
2022-09-16T18:03:52.868Z,0.30
2022-09-16T18:06:23.081Z,0.40
2022-09-16T18:08:52.769Z,0.20
2022-09-16T18:11:22.325Z,0.40
2022-09-16T18:13:55.674Z,0.47
2022-09-16T18:16:26.802Z,0.40
2022-09-16T18:18:56.893Z,0.30
2022-09-16T18:21:25.960Z,0.50
2022-09-16T18:23:56.226Z,0.45
2022-09-16T18:26:25.573Z,0.20
2022-09-16T18:29:12.603Z,0.30
2022-09-16T18:31:44.094Z,0.30
2022-09-16T18:34:13.398Z,0.80
2022-09-16T18:36:42.675Z,0.20
2022-09-16T18:39:13.663Z,0.30
2022-09-16T18:41:44.362Z,0.50
2022-09-16T18:44:14.561Z,0.30
2022-09-16T18:46:45.066Z,0.40
2022-09-16T18:49:14.881Z,0.40
2022-09-16T18:51:49.837Z,0.30
2022-09-16T18:54:24.430Z,0.52
2022-09-16T18:56:55.542Z,0.20
2022-09-16T18:59:28.280Z,0.38
2022-09-16T19:01:59.969Z,0.30
2022-09-16T19:04:29.987Z,0.40
2022-09-16T19:07:05.729Z,0.20
2022-09-16T19:09:36.874Z,1.33
2022-09-16T19:12:06.886Z,0.30
2022-09-16T19:14:37.144Z,0.40
2022-09-16T19:17:08.727Z,0.30
2022-09-16T19:19:37.787Z,0.25
2022-09-16T19:22:06.676Z,0.40
2022-09-16T19:24:35.529Z,0.50
2022-09-16T19:27:05.615Z,0.70
2022-09-16T19:29:34.790Z,0.30
2022-09-16T19:32:04.116Z,0.30
2022-09-16T19:34:34.369Z,0.20
2022-09-16T19:37:03.537Z,0.68
2022-09-16T19:39:32.536Z,0.50
2022-09-16T19:42:03.546Z,0.77
2022-09-16T19:44:32.730Z,0.63
2022-09-16T19:47:03.274Z,0.60
2022-09-16T19:49:32.421Z,0.40
2022-09-16T19:52:02.838Z,0.50
2022-09-16T19:54:33.378Z,0.63
2022-09-16T19:57:02.239Z,0.63
2022-09-16T19:59:31.610Z,0.60
2022-09-16T20:02:01.833Z,0.55
2022-09-16T20:04:31.084Z,0.75
2022-09-16T20:07:00.265Z,0.52
2022-09-16T20:09:31.384Z,0.50
2022-09-16T20:12:00.397Z,0.50
2022-09-16T20:14:33.977Z,0.40
2022-09-16T20:17:02.945Z,0.50
2022-09-16T20:19:31.850Z,0.50
2022-09-16T20:22:01.602Z,0.40
2022-09-16T20:24:31.905Z,0.70
2022-09-16T20:27:00.804Z,0.47
2022-09-16T20:29:30.828Z,0.40
2022-09-16T20:32:00.250Z,0.57
2022-09-16T20:34:29.764Z,0.95
2022-09-16T20:36:58.790Z,0.50
2022-09-16T20:39:28.077Z,0.60
2022-09-16T20:41:58.758Z,0.63
2022-09-16T20:44:27.770Z,0.80
2022-09-16T20:46:56.938Z,0.50
2022-09-16T20:49:26.932Z,0.68
2022-09-16T20:51:55.858Z,2.25
2022-09-16T20:54:26.226Z,0.73
2022-09-16T20:56:55.419Z,0.55
2022-09-16T20:59:25.890Z,0.73
2022-09-16T21:01:56.305Z,1.00
2022-09-16T21:04:25.669Z,1.27
2022-09-16T21:06:55.030Z,0.70
2022-09-16T21:09:24.091Z,0.40
2022-09-16T21:11:53.505Z,0.75
2022-09-16T21:14:24.067Z,0.60
2022-09-16T21:16:54.758Z,0.70
2022-09-16T21:19:23.962Z,0.40
2022-09-16T21:21:53.272Z,0.50
2022-09-16T21:24:23.276Z,0.50
2022-09-16T21:26:55.190Z,0.50
2022-09-16T21:29:24.932Z,0.90
2022-09-16T21:31:56.536Z,0.77
2022-09-16T21:34:25.894Z,0.60
2022-09-16T21:36:58.853Z,0.50
2022-09-16T21:39:29.590Z,1.15
2022-09-16T21:41:58.630Z,0.40
2022-09-16T21:44:27.866Z,0.45
2022-09-16T21:46:58.337Z,0.65
2022-09-16T21:49:29.074Z,0.63
2022-09-16T21:51:59.340Z,0.40
2022-09-16T21:54:30.636Z,0.90
2022-09-16T21:56:59.638Z,0.60
2022-09-16T21:59:28.846Z,0.57
2022-09-16T22:02:03.534Z,0.47
2022-09-16T22:04:33.609Z,0.60
2022-09-16T22:07:04.573Z,0.52
2022-09-16T22:09:33.874Z,0.52
2022-09-16T22:12:03.342Z,0.55
2022-09-16T22:14:33.611Z,0.80
2022-09-16T22:17:05.188Z,0.50
2022-09-16T22:19:34.271Z,0.73
2022-09-16T22:22:04.730Z,0.47
2022-09-16T22:24:33.692Z,1.40
2022-09-16T22:27:02.809Z,0.52
2022-09-16T22:29:32.112Z,0.60
2022-09-16T22:32:01.175Z,0.50
2022-09-16T22:34:31.537Z,0.50
2022-09-16T22:37:00.562Z,0.70
2022-09-16T22:39:29.625Z,0.60
2022-09-16T22:41:58.600Z,0.75
2022-09-16T22:44:27.528Z,1.58
2022-09-16T22:46:56.525Z,0.60
2022-09-16T22:49:27.632Z,0.88
2022-09-16T22:51:58.508Z,0.60
2022-09-16T22:54:29.932Z,0.98
2022-09-16T22:57:01.880Z,0.60
2022-09-16T22:59:30.963Z,0.55
2022-09-16T23:02:00.872Z,0.85
2022-09-16T23:04:30.239Z,0.52
2022-09-16T23:07:00.607Z,0.88
2022-09-16T23:09:29.801Z,0.40
2022-09-16T23:11:59.654Z,0.40
2022-09-16T23:14:30.685Z,1.00
2022-09-16T23:16:59.937Z,0.77
2022-09-16T23:19:29.394Z,0.88
2022-09-16T23:22:01.337Z,0.55
2022-09-16T23:27:00.623Z,0.50
2022-09-16T23:29:31.165Z,0.57
2022-09-16T23:32:03.515Z,0.70
2022-09-16T23:37:07.070Z,0.50
2022-09-16T23:39:36.776Z,1.30
2022-09-16T23:42:06.671Z,0.40
2022-09-16T23:44:36.317Z,0.80
2022-09-16T23:47:07.550Z,0.82
2022-09-16T23:49:36.656Z,0.50
2022-09-16T23:52:08.609Z,0.55
2022-09-16T23:54:38.686Z,0.75
2022-09-16T23:57:08.230Z,0.68
2022-09-16T23:59:46.238Z,1.27
